createdAt,value
2018-06-12T00:01:35.841Z,99772.50
2018-06-12T00:04:05.950Z,99767.09
2018-06-12T00:06:34.968Z,99768.13
2018-06-12T00:09:04.345Z,99765.59
2018-06-12T00:11:33.311Z,99759.16
2018-06-12T00:14:02.109Z,99761.02
2018-06-12T00:16:31.029Z,99760.17
2018-06-12T00:19:00.852Z,99766.78
2018-06-12T00:21:29.633Z,99767.80
2018-06-12T00:23:58.512Z,99767.80
2018-06-12T00:26:27.521Z,99767.80
2018-06-12T00:28:56.622Z,99765.09
2018-06-12T00:31:25.423Z,99763.73
2018-06-12T00:33:54.120Z,99757.67
2018-06-12T00:36:22.805Z,99759.36
2018-06-12T00:38:51.842Z,99755.30
2018-06-12T00:41:20.793Z,99757.67
2018-06-12T00:43:49.677Z,99763.42
2018-06-12T00:46:18.522Z,99760.38
2018-06-12T00:48:47.558Z,99769.84
2018-06-12T00:51:16.434Z,99769.00
2018-06-12T00:53:45.205Z,99768.16
2018-06-12T00:56:23.763Z,99767.34
2018-06-12T00:58:52.856Z,99771.41
2018-06-12T01:01:21.903Z,99771.41
2018-06-12T01:03:50.657Z,99770.05
2018-06-12T01:06:19.649Z,99776.47
2018-06-12T01:08:49.093Z,99772.07
2018-06-12T01:11:18.131Z,99777.83
2018-06-12T01:13:47.124Z,99786.45
2018-06-12T01:16:16.081Z,99782.90
2018-06-12T01:18:45.114Z,99779.88
2018-06-12T01:21:14.106Z,99780.89
2018-06-12T01:23:43.205Z,99785.30
2018-06-12T01:26:12.301Z,99786.66
2018-06-12T01:28:41.186Z,99787.66
2018-06-12T01:31:10.087Z,99780.05
2018-06-12T01:33:38.935Z,99785.47
2018-06-12T01:36:07.858Z,99784.30
2018-06-12T01:38:36.901Z,99795.98
2018-06-12T01:41:05.860Z,99792.43
2018-06-12T01:43:34.721Z,99792.09
2018-06-12T01:46:03.620Z,99789.38
2018-06-12T01:48:32.717Z,99799.05
2018-06-12T01:51:01.791Z,99797.19
2018-06-12T01:53:30.617Z,99801.41
2018-06-12T01:55:59.472Z,99799.75
2018-06-12T01:58:28.465Z,99801.11
2018-06-12T02:00:57.412Z,99800.26
2018-06-12T02:03:26.343Z,99803.13
2018-06-12T02:05:55.330Z,99808.03
2018-06-12T02:08:23.997Z,99810.75
2018-06-12T02:10:53.029Z,99809.39
2018-06-12T02:13:22.109Z,99813.45
2018-06-12T02:15:50.954Z,99805.84
2018-06-12T02:18:19.888Z,99805.02
2018-06-12T02:20:48.619Z,99804.17
2018-06-12T02:23:17.569Z,99803.13
2018-06-12T02:25:46.278Z,99809.08
2018-06-12T02:28:15.093Z,99811.79
2018-06-12T02:30:43.935Z,99810.09
2018-06-12T02:33:12.705Z,99813.14
2018-06-12T02:35:41.608Z,99812.30
2018-06-12T02:38:10.676Z,99814.49
2018-06-12T02:40:39.456Z,99814.49
2018-06-12T02:43:08.218Z,99819.91
2018-06-12T02:45:37.202Z,99819.91
2018-06-12T02:48:06.244Z,99818.72
2018-06-12T02:50:35.237Z,99818.21
2018-06-12T02:53:04.130Z,99823.63
2018-06-12T02:55:32.989Z,99827.69
2018-06-12T02:58:02.652Z,99825.98
2018-06-12T03:00:31.471Z,99822.78
2018-06-12T03:03:00.473Z,99824.98
2018-06-12T03:05:30.269Z,99827.34
2018-06-12T03:07:59.193Z,99827.34
2018-06-12T03:10:27.975Z,99834.45
2018-06-12T03:12:56.987Z,99839.52
2018-06-12T03:15:25.934Z,99836.81
2018-06-12T03:17:54.766Z,99838.17
2018-06-12T03:20:36.578Z,99839.52
2018-06-12T03:23:05.471Z,99835.16
2018-06-12T03:25:34.482Z,99838.70
2018-06-12T03:28:03.697Z,99834.81
2018-06-12T03:30:32.614Z,99844.62
2018-06-12T03:33:01.286Z,99837.86
2018-06-12T03:35:30.333Z,99839.72
2018-06-12T03:37:59.217Z,99841.58
2018-06-12T03:40:28.046Z,99839.52
2018-06-12T03:42:56.894Z,99838.70
2018-06-12T03:45:25.962Z,99844.28
2018-06-12T03:47:55.219Z,99847.34
2018-06-12T03:50:23.941Z,99846.83
2018-06-12T03:52:52.621Z,99849.00
2018-06-12T03:55:21.397Z,99814.83
2018-06-12T03:57:50.218Z,99850.34
2018-06-12T04:00:19.404Z,99848.63
2018-06-12T04:02:48.102Z,99850.13
2018-06-12T04:05:17.046Z,99860.25
2018-06-12T04:07:46.041Z,99862.77
2018-06-12T04:10:14.822Z,99867.17
2018-06-12T04:12:43.650Z,99872.93
2018-06-12T04:15:12.595Z,99875.95
2018-06-12T04:17:41.518Z,99875.44
2018-06-12T04:20:10.251Z,99880.01
2018-06-12T04:22:38.946Z,99875.95
2018-06-12T04:25:07.639Z,99886.78
2018-06-12T04:27:36.468Z,99880.52
2018-06-12T04:30:05.391Z,99887.28
2018-06-12T04:32:34.176Z,99886.97
2018-06-12T04:35:03.014Z,99888.33
2018-06-12T04:37:31.866Z,99887.48
2018-06-12T04:40:00.725Z,99889.34
2018-06-12T04:42:29.456Z,99893.59
2018-06-12T04:44:58.395Z,99894.95
2018-06-12T04:47:27.421Z,99893.76
2018-06-12T04:49:56.214Z,99889.69
2018-06-12T04:52:25.082Z,99901.87
2018-06-12T04:54:53.994Z,99898.32
2018-06-12T04:57:23.068Z,99902.92
2018-06-12T04:59:51.977Z,99910.19
2018-06-12T05:02:21.229Z,99910.19
2018-06-12T05:04:50.006Z,99903.93
2018-06-12T05:07:18.922Z,99902.07
2018-06-12T05:09:48.076Z,99909.85
2018-06-12T05:12:17.158Z,99904.44
2018-06-12T05:14:45.951Z,99911.70
2018-06-12T05:17:14.838Z,99906.83
2018-06-12T05:19:43.667Z,99911.70
2018-06-12T05:22:12.519Z,99917.97
2018-06-12T05:24:41.456Z,99919.33
2018-06-12T05:27:10.267Z,99919.33
2018-06-12T05:29:39.245Z,99919.02
2018-06-12T05:32:08.442Z,99923.08
2018-06-12T05:34:37.645Z,99931.20
2018-06-12T05:37:06.477Z,99925.24
2018-06-12T05:39:35.579Z,99927.95
2018-06-12T05:42:04.579Z,99924.94
2018-06-12T05:44:33.629Z,99928.48
2018-06-12T05:47:02.477Z,99934.91
2018-06-12T05:49:31.418Z,99942.02
2018-06-12T05:52:00.412Z,99939.48
2018-06-12T05:54:29.333Z,99944.89
2018-06-12T05:56:58.139Z,99946.75
2018-06-12T05:59:27.031Z,99950.65
2018-06-12T06:01:55.974Z,99948.11
2018-06-12T06:04:24.921Z,99958.11
2018-06-12T06:06:53.661Z,99959.47
2018-06-12T06:09:22.589Z,99963.34
2018-06-12T06:11:52.091Z,99964.88
2018-06-12T06:14:20.834Z,99962.99
2018-06-12T06:16:49.786Z,99965.20
2018-06-12T06:19:18.874Z,99967.40
2018-06-12T06:21:47.626Z,99974.16
2018-06-12T06:24:16.401Z,99970.61
2018-06-12T06:26:45.466Z,99979.08
2018-06-12T06:29:14.337Z,99978.57
2018-06-12T06:31:43.073Z,99982.78
2018-06-12T06:34:11.914Z,99988.01
2018-06-12T06:36:40.633Z,99979.88
2018-06-12T06:39:09.406Z,99984.41
2018-06-12T06:41:38.169Z,99987.27
2018-06-12T06:44:07.127Z,99991.98
2018-06-12T06:46:35.789Z,99988.61
2018-06-12T06:49:04.652Z,99989.07
2018-06-12T06:51:33.387Z,99987.36
2018-06-12T06:54:02.091Z,99993.81
2018-06-12T06:56:30.781Z,99998.03
2018-06-12T06:58:59.499Z,100000.37
2018-06-12T07:01:28.251Z,99995.81
2018-06-12T07:03:56.940Z,100007.65
2018-06-12T07:06:25.684Z,100006.10
2018-06-12T07:08:54.471Z,100013.22
2018-06-12T07:11:23.186Z,100018.95
2018-06-12T07:13:52.056Z,100017.09
2018-06-12T07:16:20.965Z,100026.38
2018-06-12T07:18:49.922Z,100023.16
2018-06-12T07:21:19.570Z,100023.00
2018-06-12T07:23:48.446Z,100022.15
2018-06-12T07:26:17.190Z,100030.59
2018-06-12T07:28:45.952Z,100036.86
2018-06-12T07:31:14.758Z,100035.00
2018-06-12T07:33:43.733Z,100034.80
2018-06-12T07:36:12.526Z,100034.80
2018-06-12T07:38:41.246Z,100035.66
2018-06-12T07:41:10.154Z,100042.77
2018-06-12T07:43:38.939Z,100041.58
2018-06-12T07:46:07.706Z,100050.90
2018-06-12T07:48:36.529Z,100044.13
2018-06-12T07:51:05.465Z,100047.14
2018-06-12T07:53:34.538Z,100050.70
2018-06-12T07:56:03.663Z,100056.12
2018-06-12T07:58:32.362Z,100060.03
2018-06-12T08:01:01.178Z,100059.83
2018-06-12T08:03:29.927Z,100057.13
2018-06-12T08:05:58.662Z,100059.13
2018-06-12T08:08:27.371Z,100057.78
2018-06-12T08:10:56.142Z,100054.56
2018-06-12T08:13:24.881Z,100064.39
2018-06-12T08:15:53.607Z,100070.47
2018-06-12T08:18:22.300Z,100071.82
2018-06-12T08:20:51.067Z,100074.34
2018-06-12T08:23:19.839Z,100071.13
2018-06-12T08:25:48.614Z,100076.38
2018-06-12T08:28:17.638Z,100078.05
2018-06-12T08:30:46.390Z,100077.04
2018-06-12T08:33:15.086Z,100088.22
2018-06-12T08:35:43.882Z,100087.69
2018-06-12T08:38:12.914Z,100084.66
2018-06-12T08:40:41.626Z,100089.04
2018-06-12T08:43:10.361Z,100093.30
2018-06-12T08:45:39.250Z,100095.00
2018-06-12T08:48:08.088Z,100097.36
2018-06-12T08:50:36.923Z,100098.06
2018-06-12T08:53:06.019Z,100107.86
2018-06-12T08:55:34.722Z,100110.06
2018-06-12T08:58:03.525Z,100106.19
2018-06-12T09:00:32.858Z,100108.05
2018-06-12T09:03:01.848Z,100114.32
2018-06-12T09:05:30.781Z,100107.20
2018-06-12T09:07:59.830Z,100106.35
2018-06-12T09:10:28.610Z,100112.12
2018-06-12T09:12:57.423Z,100107.39
2018-06-12T09:15:26.128Z,100116.34
2018-06-12T09:17:54.893Z,100120.75
2018-06-12T09:20:23.781Z,100120.41
2018-06-12T09:22:52.464Z,100122.61
2018-06-12T09:25:21.183Z,100132.44
2018-06-12T09:27:50.337Z,100135.66
2018-06-12T09:30:19.659Z,100137.02
2018-06-12T09:32:48.370Z,100138.36
2018-06-12T09:35:17.117Z,100139.38
2018-06-12T09:37:45.865Z,100147.00
2018-06-12T09:40:14.589Z,100143.44
2018-06-12T09:42:43.421Z,100154.28
2018-06-12T09:45:12.202Z,100151.26
2018-06-12T09:47:41.114Z,100152.92
2018-06-12T09:50:09.999Z,100150.91
2018-06-12T09:52:38.714Z,100153.97
2018-06-12T09:55:07.434Z,100155.48
2018-06-12T09:57:36.155Z,100156.02
2018-06-12T10:00:05.024Z,100162.80
2018-06-12T10:02:33.754Z,100157.38
2018-06-12T10:05:02.492Z,100163.80
2018-06-12T10:07:31.280Z,100167.02
2018-06-12T10:10:00.137Z,100163.45
2018-06-12T10:12:29.073Z,100166.16
2018-06-12T10:14:58.110Z,100161.79
2018-06-12T10:17:27.807Z,100158.23
2018-06-12T10:19:56.555Z,100158.42
2018-06-12T10:22:25.464Z,100160.78
2018-06-12T10:24:54.589Z,100157.77
2018-06-12T10:27:23.414Z,100165.00
2018-06-12T10:29:52.321Z,100173.14
2018-06-12T10:32:21.279Z,100170.11
2018-06-12T10:34:50.184Z,100173.33
2018-06-12T10:37:18.972Z,100169.77
2018-06-12T10:39:47.712Z,100174.33
2018-06-12T10:42:16.457Z,100176.22
2018-06-12T10:44:45.243Z,100177.58
2018-06-12T10:47:14.056Z,100177.73
2018-06-12T10:49:42.815Z,100182.30
2018-06-12T10:52:11.544Z,100182.50
2018-06-12T10:54:40.259Z,100183.00
2018-06-12T10:57:09.012Z,100182.34
2018-06-12T10:59:37.697Z,100185.05
2018-06-12T11:02:06.443Z,100185.55
2018-06-12T11:04:35.178Z,100186.91
2018-06-12T11:07:04.130Z,100187.60
2018-06-12T11:09:32.850Z,100192.67
2018-06-12T11:12:01.616Z,100196.58
2018-06-12T11:14:31.180Z,100192.67
2018-06-12T11:16:59.919Z,100195.06
2018-06-12T11:19:28.865Z,100203.70
2018-06-12T11:21:57.607Z,100191.16
2018-06-12T11:24:26.352Z,100198.78
2018-06-12T11:26:55.466Z,100199.79
2018-06-12T11:29:24.205Z,100204.55
2018-06-12T11:31:52.915Z,100201.84
2018-06-12T11:34:21.686Z,100196.42
2018-06-12T11:36:50.433Z,100200.17
2018-06-12T11:39:19.242Z,100208.80
2018-06-12T11:41:47.983Z,100212.01
2018-06-12T11:44:16.649Z,100207.95
2018-06-12T11:46:45.346Z,100209.80
2018-06-12T11:49:14.204Z,100209.48
2018-06-12T11:51:43.072Z,100220.83
2018-06-12T11:54:12.051Z,100216.89
2018-06-12T11:56:41.086Z,100218.78
2018-06-12T11:59:10.083Z,100219.78
2018-06-12T12:01:38.967Z,100226.55
2018-06-12T12:04:07.712Z,100231.62
2018-06-12T12:06:36.783Z,100225.39
2018-06-12T12:09:08.519Z,100231.30
2018-06-12T12:11:37.811Z,100190.59
2018-06-12T12:14:06.916Z,100229.29
2018-06-12T12:16:35.592Z,100229.29
2018-06-12T12:19:04.454Z,100241.13
2018-06-12T12:21:33.149Z,100249.25
2018-06-12T12:24:01.976Z,100257.03
2018-06-12T12:26:30.705Z,100253.16
2018-06-12T12:28:59.488Z,100251.30
2018-06-12T12:31:28.230Z,100262.63
2018-06-12T12:33:56.940Z,100262.63
2018-06-12T12:36:25.706Z,100265.34
2018-06-12T12:38:54.452Z,100260.42
2018-06-12T12:41:23.236Z,100263.98
2018-06-12T12:43:51.984Z,100267.02
2018-06-12T12:46:20.750Z,100226.28
2018-06-12T12:48:49.493Z,100260.23
2018-06-12T12:51:18.167Z,100261.09
2018-06-12T12:53:47.165Z,100254.01
2018-06-12T12:56:16.028Z,100267.36
2018-06-12T12:58:44.814Z,100267.86
2018-06-12T13:01:13.529Z,100266.51
2018-06-12T13:03:42.920Z,100266.51
2018-06-12T13:06:11.679Z,100273.28
2018-06-12T13:08:40.401Z,100265.16
2018-06-12T13:11:09.126Z,100263.48
2018-06-12T13:13:37.885Z,100264.30
2018-06-12T13:16:06.696Z,100269.72
2018-06-12T13:18:35.426Z,100274.63
2018-06-12T13:21:04.279Z,100268.90
2018-06-12T13:23:33.123Z,100270.25
2018-06-12T13:26:01.915Z,100265.34
2018-06-12T13:28:30.715Z,100269.41
2018-06-12T13:30:59.597Z,100270.25
2018-06-12T13:33:28.453Z,100272.96
2018-06-12T13:35:57.250Z,100264.48
2018-06-12T13:38:26.089Z,100267.20
2018-06-12T13:40:55.060Z,100265.84
2018-06-12T13:43:24.052Z,100269.05
2018-06-12T13:45:52.926Z,100270.91
2018-06-12T13:48:22.548Z,100275.32
2018-06-12T13:50:51.739Z,100271.27
2018-06-12T13:53:20.817Z,100268.55
2018-06-12T13:55:49.987Z,100276.86
2018-06-12T13:58:19.466Z,100277.68
2018-06-12T14:00:48.557Z,100281.42
2018-06-12T14:03:17.657Z,100285.81
2018-06-12T14:05:46.539Z,100282.78
2018-06-12T14:08:15.536Z,100285.48
2018-06-12T14:10:44.366Z,100286.49
2018-06-12T14:13:13.235Z,100289.20
2018-06-12T14:15:42.504Z,100287.53
2018-06-12T14:18:11.562Z,100299.19
2018-06-12T14:20:40.429Z,100291.59
2018-06-12T14:23:09.389Z,100294.80
2018-06-12T14:25:38.213Z,100298.52
2018-06-12T14:28:07.177Z,100291.75
2018-06-12T14:30:36.273Z,100297.52
2018-06-12T14:33:05.483Z,100301.22
2018-06-12T14:35:34.566Z,100301.73
2018-06-12T14:38:03.696Z,100300.38
2018-06-12T14:40:32.774Z,100309.03
2018-06-12T14:43:01.919Z,100304.44
2018-06-12T14:45:30.848Z,100306.48
2018-06-12T14:47:59.699Z,100304.97
2018-06-12T14:50:28.587Z,100302.41
2018-06-12T14:52:57.987Z,100309.18
2018-06-12T14:55:27.129Z,100299.39
2018-06-12T14:57:56.205Z,100312.39
2018-06-12T15:00:25.171Z,100315.09
2018-06-12T15:02:54.373Z,100312.92
2018-06-12T15:05:23.396Z,100317.30
2018-06-12T15:07:52.508Z,100307.52
2018-06-12T15:10:21.613Z,100311.22
2018-06-12T15:12:50.595Z,100315.09
2018-06-12T15:15:19.541Z,100305.31
2018-06-12T15:17:48.534Z,100314.28
2018-06-12T15:20:17.603Z,100304.27
2018-06-12T15:22:46.708Z,100309.18
2018-06-12T15:25:15.482Z,100307.33
2018-06-12T15:27:44.361Z,100309.69
2018-06-12T15:30:13.559Z,100299.70
2018-06-12T15:32:43.064Z,100303.77
2018-06-12T15:35:11.960Z,100308.68
2018-06-12T15:37:40.852Z,100311.89
2018-06-12T15:40:09.866Z,100312.74
2018-06-12T15:42:38.696Z,100314.59
2018-06-12T15:45:07.728Z,100316.80
2018-06-12T15:47:36.519Z,100315.80
2018-06-12T15:50:05.525Z,100321.37
2018-06-12T15:52:34.372Z,100322.72
2018-06-12T15:55:03.247Z,100319.16
2018-06-12T15:57:32.358Z,100326.28
2018-06-12T16:00:01.593Z,100322.04
2018-06-12T16:02:30.380Z,100324.08
2018-06-12T16:04:59.888Z,100328.99
2018-06-12T16:07:28.617Z,100331.70
2018-06-12T16:09:57.448Z,100321.87
2018-06-12T16:12:26.519Z,100323.58
2018-06-12T16:14:55.660Z,100318.66
2018-06-12T16:17:24.447Z,100313.25
2018-06-12T16:19:53.238Z,100316.80
2018-06-12T16:22:22.092Z,100314.09
2018-06-12T16:24:50.871Z,100314.09
2018-06-12T16:27:19.617Z,100314.09
2018-06-12T16:29:48.603Z,100315.80
2018-06-12T16:32:17.747Z,100317.30
2018-06-12T16:34:46.568Z,100321.72
2018-06-12T16:37:15.570Z,100326.28
2018-06-12T16:39:44.554Z,100326.78
2018-06-12T16:42:13.471Z,100321.37
2018-06-12T16:44:42.462Z,100320.02
2018-06-12T16:47:11.530Z,100324.26
2018-06-12T16:49:40.554Z,100324.26
2018-06-12T16:52:09.544Z,100324.26
2018-06-12T16:54:38.868Z,100320.70
2018-06-12T16:57:08.152Z,100324.77
2018-06-12T16:59:38.107Z,100327.97
2018-06-12T17:02:06.905Z,100324.77
2018-06-12T17:04:35.950Z,100327.12
2018-06-12T17:07:04.942Z,100323.59
2018-06-12T17:09:34.104Z,100324.09
2018-06-12T17:12:02.990Z,100325.45
2018-06-12T17:14:32.145Z,100330.52
2018-06-12T17:17:01.130Z,100332.37
2018-06-12T17:19:29.887Z,100327.80
2018-06-12T17:21:59.809Z,100333.22
2018-06-12T17:24:28.751Z,100336.11
2018-06-12T17:26:57.507Z,100339.32
2018-06-12T17:29:26.723Z,100334.91
2018-06-12T17:31:55.838Z,100336.61
2018-06-12T17:34:24.968Z,100343.03
2018-06-12T17:36:53.894Z,100344.07
2018-06-12T17:39:23.080Z,100315.29
2018-06-12T17:41:52.089Z,100353.36
2018-06-12T17:44:21.174Z,100351.66
2018-06-12T17:46:50.200Z,100348.45
2018-06-12T17:49:19.073Z,100352.51
2018-06-12T17:51:48.064Z,100355.72
2018-06-12T17:54:16.958Z,100355.22
2018-06-12T17:56:45.847Z,100357.42
2018-06-12T17:59:14.740Z,100355.72
2018-06-12T18:01:43.582Z,100354.90
2018-06-12T18:04:12.420Z,100357.07
2018-06-12T18:06:41.282Z,100365.20
2018-06-12T18:09:11.557Z,100367.40
2018-06-12T18:14:52.844Z,100373.84
2018-06-12T18:17:21.707Z,100378.91
2018-06-12T18:19:55.732Z,100371.80
2018-06-12T18:22:24.578Z,100377.06
2018-06-12T18:24:53.401Z,100384.83
2018-06-12T18:27:22.214Z,100387.54
2018-06-12T18:29:51.108Z,100383.48
2018-06-12T18:32:19.975Z,100390.75
2018-06-12T18:34:48.796Z,100386.69
2018-06-12T18:37:17.686Z,100392.95
2018-06-12T18:39:46.543Z,100390.75
2018-06-12T18:42:15.303Z,100388.04
2018-06-12T18:44:44.194Z,100392.10
2018-06-12T18:47:13.133Z,100400.58
2018-06-12T18:49:41.979Z,100401.08
2018-06-12T18:52:10.785Z,100398.05
2018-06-12T18:54:40.093Z,100402.11
2018-06-12T18:57:08.892Z,100410.23
2018-06-12T18:59:37.805Z,100403.61
2018-06-12T19:02:06.840Z,100407.67
2018-06-12T19:04:35.863Z,100413.09
2018-06-12T19:07:04.982Z,100414.13
2018-06-12T19:09:34.192Z,100413.27
2018-06-12T19:12:04.033Z,100411.06
2018-06-12T19:14:32.962Z,100413.27
2018-06-12T19:17:02.199Z,100413.59
2018-06-12T19:19:30.968Z,100420.72
2018-06-12T19:21:59.778Z,100418.16
2018-06-12T19:24:28.670Z,100415.95
2018-06-12T19:26:57.890Z,100410.37
2018-06-12T19:29:26.649Z,100423.76
2018-06-12T19:31:55.498Z,100422.91
2018-06-12T19:34:24.537Z,100425.76
2018-06-12T19:36:53.548Z,100427.64
2018-06-12T19:39:22.339Z,100431.36
2018-06-12T19:41:51.284Z,100434.56
2018-06-12T19:44:20.211Z,100435.41
2018-06-12T19:46:49.293Z,100439.97
2018-06-12T19:49:18.046Z,100446.42
2018-06-12T19:51:47.808Z,100447.42
2018-06-12T19:54:16.653Z,100447.42
2018-06-12T19:56:45.598Z,100447.92
2018-06-12T19:59:14.632Z,100450.31
2018-06-12T20:01:43.442Z,100453.52
2018-06-12T20:04:12.937Z,100462.14
2018-06-12T20:06:42.826Z,100455.87
2018-06-12T20:09:11.641Z,100459.93
2018-06-12T20:11:40.670Z,100460.43
2018-06-12T20:14:09.475Z,100459.93
2018-06-12T20:16:38.366Z,100463.67
2018-06-12T20:19:07.237Z,100464.67
2018-06-12T20:21:35.969Z,100468.23
2018-06-12T20:24:04.835Z,100472.79
2018-06-12T20:26:33.772Z,100473.64
2018-06-12T20:29:02.626Z,100473.79
2018-06-12T20:31:31.515Z,100473.29
2018-06-12T20:34:00.384Z,100475.99
2018-06-12T20:36:29.135Z,100473.29
2018-06-12T20:38:58.032Z,100472.97
2018-06-12T20:41:27.078Z,100475.14
2018-06-12T20:43:56.070Z,100476.17
2018-06-12T20:46:24.862Z,100478.38
2018-06-12T20:48:53.695Z,100476.17
2018-06-12T20:51:22.496Z,100473.12
2018-06-12T20:53:51.414Z,100472.62
2018-06-12T20:56:20.199Z,100474.47
2018-06-12T20:58:49.052Z,100478.88
2018-06-12T21:01:18.018Z,100472.77
2018-06-12T21:03:47.236Z,100474.97
2018-06-12T21:06:16.142Z,100474.11
2018-06-12T21:08:45.207Z,100476.00
2018-06-12T21:11:14.084Z,100480.38
2018-06-12T21:13:42.965Z,100481.06
2018-06-12T21:16:11.828Z,100487.83
2018-06-12T21:18:40.803Z,100491.39
2018-06-12T21:21:09.527Z,100488.67
2018-06-12T21:23:38.356Z,100488.32
2018-06-12T21:26:07.387Z,100493.73
2018-06-12T21:28:36.256Z,100489.36
2018-06-12T21:31:05.997Z,100489.50
2018-06-12T21:33:34.723Z,100501.18
2018-06-12T21:36:03.599Z,100501.68
2018-06-12T21:38:32.358Z,100507.27
2018-06-12T21:41:01.141Z,100509.48
2018-06-12T21:43:29.863Z,100516.74
2018-06-12T21:45:58.667Z,100516.24
2018-06-12T21:48:27.417Z,100515.21
2018-06-12T21:50:56.301Z,100522.48
2018-06-12T21:53:25.103Z,100525.04
2018-06-12T21:55:53.842Z,100524.54
2018-06-12T21:58:22.561Z,100531.13
2018-06-12T22:00:51.434Z,100530.12
2018-06-12T22:03:20.203Z,100535.36
2018-06-12T22:05:48.936Z,100528.45
2018-06-12T22:08:17.699Z,100535.40
2018-06-12T22:10:46.503Z,100533.52
2018-06-12T22:13:15.293Z,100538.28
2018-06-12T22:15:44.061Z,100529.98
2018-06-12T22:18:12.867Z,100533.05
2018-06-12T22:20:41.622Z,100531.16
2018-06-12T22:23:10.410Z,100531.87
2018-06-12T22:25:39.199Z,100537.10
2018-06-12T22:28:07.990Z,100534.75
2018-06-12T22:30:36.749Z,100540.48
2018-06-12T22:33:05.499Z,100536.28
2018-06-12T22:35:35.153Z,100530.69
2018-06-12T22:38:03.849Z,100531.89
2018-06-12T22:40:32.611Z,100538.84
2018-06-12T22:43:02.111Z,100535.59
2018-06-12T22:45:30.843Z,100535.45
2018-06-12T22:47:59.831Z,100540.19
2018-06-12T22:50:28.549Z,100535.13
2018-06-12T22:52:57.314Z,100543.08
2018-06-12T22:55:26.026Z,100536.66
2018-06-12T22:57:54.792Z,100538.69
2018-06-12T23:00:23.673Z,100533.27
2018-06-12T23:02:52.420Z,100540.22
2018-06-12T23:05:21.210Z,100539.22
2018-06-12T23:07:49.977Z,100550.22
2018-06-12T23:10:18.867Z,100548.87
2018-06-12T23:12:47.619Z,100550.04
2018-06-12T23:15:16.393Z,100545.48
2018-06-12T23:17:45.099Z,100538.70
2018-06-12T23:20:24.994Z,100544.45
2018-06-12T23:22:53.750Z,100544.45
2018-06-12T23:25:22.464Z,100550.39
2018-06-12T23:27:51.170Z,100544.12
2018-06-12T23:30:19.953Z,100548.19
2018-06-12T23:32:48.668Z,100547.34
2018-06-12T23:35:17.414Z,100548.19
2018-06-12T23:37:46.145Z,100556.31
2018-06-12T23:40:14.886Z,100550.89
2018-06-12T23:42:43.581Z,100546.83
2018-06-12T23:45:12.265Z,100550.54
2018-06-12T23:47:41.017Z,100553.25
2018-06-12T23:50:09.795Z,100554.28
2018-06-12T23:52:38.469Z,100550.22
2018-06-12T23:55:07.181Z,100553.08
2018-06-12T23:57:35.882Z,100549.52
